This is the latest recevied weather packets stored in our database for station/object WMKK. If no packets are shown the sender has not sent any weather packets the latest 10 day(s).
| Time | Temp. | Humidity | Pressure | Rain* | Wind** | Luminosity | Snow |
|---|---|---|---|---|---|---|---|
| 1777649994 | 25.56° C | 88% | 1009 hPa | - | - | - | - |
| 1777648212 | 25.56° C | 88% | 1009 hPa | - | - | - | - |
| 1777646394 | 25.56° C | 88% | 1009 hPa | - | - | - | - |
| 1777644612 | 25.56° C | 88% | 1009 hPa | - | - | - | - |
| 1777642796 | 25.56° C | 88% | 1009 hPa | - | - | - | - |
| 1777641016 | 25.56° C | 88% | 1008 hPa | - | - | - | - |
| 1777635594 | 25° C | 94% | 1008 hPa | - | - | - | - |
| 1777633811 | 25° C | 88% | 1007 hPa | - | - | - | - |
| 1777631995 | 23.89° C | 94% | 1007 hPa | - | - | - | - |
| 1777630219 | 25.56° C | 94% | 1008 hPa | - | - | - | - |
| 1777629597 | 27.78° C | 83% | 1007 hPa | - | - | - | - |
| 1777628397 | 31.67° C | 66% | 1006 hPa | - | - | - | - |
| 1777626619 | 32.78° C | 66% | 1006 hPa | - | - | - | - |
| 1777624796 | 33.89° C | 63% | 1005 hPa | - | - | - | - |
| 1777623014 | 32.78° C | 66% | 1005 hPa | - | - | - | - |
| 1777621193 | 31.67° C | 66% | 1005 hPa | - | - | - | - |
| 1777619411 | 32.78° C | 62% | 1006 hPa | - | - | - | - |
| 1777618193 | 31.67° C | 66% | 1007 hPa | - | - | - | - |
| 1777616389 | 31.67° C | 66% | 1008 hPa | - | - | - | - |
| 1777615817 | 30.56° C | 70% | 1008 hPa | - | - | - | - |
| 1777613993 | 31.67° C | 66% | 1008 hPa | - | - | - | - |
| 1777612218 | 33.89° C | 59% | 1009 hPa | - | - | - | - |
| 1777610396 | 33.89° C | 59% | 1009 hPa | - | - | - | - |
| 1777608610 | 32.78° C | 62% | 1010 hPa | - | - | - | - |
| 1777606793 | 33.89° C | 59% | 1010 hPa | - | - | - | - |
* Rain since midnight (hover to see other rain measurements)
** Current wind speed in m/s (hover to see current wind gust speed)